Time;durP1;ratioP1;P1;durP2;ratioP2;P2;SDS_P1;SDS_P2;PMS_P1;PMS_P2;Temp;Humidity;BMP_temperature;BMP_pressure;BME280_temperature;BME280_humidity;BME280_pressure;Samples;Min_cycle;Max_cycle;Signal;HPM_P1;HPM_P2
2021/12/04 00:02:08;;;;;;;7.12;5.95;;;;;;;9.93;54.26;99335.47;1800962;79;21045;-63
2021/12/04 00:04:38;;;;;;;6.55;5.85;;;;;;;9.92;54.25;99339.97;1789966;77;21565;-65
2021/12/04 00:07:07;;;;;;;7.08;5.55;;;;;;;9.91;54.22;99342.30;1810663;78;21062;-64
2021/12/04 00:09:35;;;;;;;6.35;5.72;;;;;;;9.91;54.19;99336.15;1799188;78;21034;-65
2021/12/04 00:12:03;;;;;;;6.53;5.80;;;;;;;9.89;54.18;99337.67;1807267;79;21081;-64
2021/12/04 00:14:31;;;;;;;6.60;5.90;;;;;;;9.88;54.16;99334.68;1791425;78;21064;-64
2021/12/04 00:16:58;;;;;;;6.62;5.75;;;;;;;9.88;54.14;99342.64;1785851;78;21513;-66
2021/12/04 00:19:24;;;;;;;6.62;5.83;;;;;;;9.88;54.12;99347.13;1797590;79;21092;-65
2021/12/04 00:21:52;;;;;;;7.28;6.28;;;;;;;9.88;54.09;99348.45;1812100;78;22129;-63
2021/12/04 00:24:18;;;;;;;7.25;6.45;;;;;;;9.87;54.06;99344.13;1799840;78;21068;-63
2021/12/04 00:26:46;;;;;;;6.72;6.03;;;;;;;9.86;54.07;99340.66;1784614;79;21553;-63
2021/12/04 00:29:12;;;;;;;8.10;6.10;;;;;;;9.86;54.04;99342.50;1800267;77;21486;-64
2021/12/04 00:31:45;;;;;;;6.75;5.87;;;;;;;9.86;54.02;99341.17;1783161;79;21146;-65
2021/12/04 00:34:08;;;;;;;7.58;6.10;;;;;;;9.84;54.00;99340.02;1787065;78;21022;-65
2021/12/04 00:49:47;;;;;;;6.95;6.00;;;;;;;9.78;53.92;99332.75;1811941;78;22154;-64
2021/12/04 00:52:14;;;;;;;7.03;6.30;;;;;;;9.77;53.95;99340.37;1805709;78;21041;-64
2021/12/04 00:54:42;;;;;;;7.95;6.30;;;;;;;9.76;53.95;99346.18;1788870;78;21002;-64
2021/12/04 00:57:09;;;;;;;7.25;6.55;;;;;;;9.75;53.93;99339.72;1814047;78;21127;-64
2021/12/04 00:59:35;;;;;;;7.00;6.22;;;;;;;9.74;53.91;99344.70;1823567;78;21470;-64
2021/12/04 01:02:04;;;;;;;7.87;6.30;;;;;;;9.74;53.89;99340.73;1805516;78;21005;-65
2021/12/04 01:04:31;;;;;;;9.33;6.40;;;;;;;9.73;53.90;99342.53;1811418;78;21018;-64
2021/12/04 01:06:57;;;;;;;6.97;6.20;;;;;;;9.72;53.90;99338.75;1801171;78;21513;-65
2021/12/04 01:09:24;;;;;;;6.30;5.67;;;;;;;9.72;53.85;99339.57;1805078;78;21196;-64
2021/12/04 01:11:52;;;;;;;7.55;6.05;;;;;;;9.71;53.86;99337.08;1823134;77;21029;-64
2021/12/04 01:14:22;;;;;;;8.00;6.47;;;;;;;9.71;53.84;99337.08;1825396;77;21498;-64
2021/12/04 01:16:49;;;;;;;7.37;6.55;;;;;;;9.71;53.84;99345.04;1817491;78;21014;-65
2021/12/04 01:19:15;;;;;;;6.90;5.90;;;;;;;9.70;53.82;99351.36;1800053;78;21052;-63
2021/12/04 01:21:42;;;;;;;6.55;5.78;;;;;;;9.68;53.80;99346.22;1810737;78;21973;-64
2021/12/04 01:24:09;;;;;;;7.22;5.92;;;;;;;9.69;53.79;99353.67;1795411;78;21308;-64
2021/12/04 01:26:35;;;;;;;7.22;6.20;;;;;;;9.68;53.77;99359.48;1817339;78;21053;-63
2021/12/04 01:29:02;;;;;;;7.30;5.80;;;;;;;9.68;53.73;99354.18;1820613;78;21033;-65
2021/12/04 01:31:29;;;;;;;7.83;6.42;;;;;;;9.66;53.72;99360.16;1808129;78;21151;-65
2021/12/04 01:33:55;;;;;;;7.17;6.05;;;;;;;9.65;53.70;99359.30;1806084;78;22004;-64
2021/12/04 01:36:21;;;;;;;6.75;6.15;;;;;;;9.65;53.69;99361.95;1802475;78;21040;-64
2021/12/04 01:38:48;;;;;;;8.10;5.47;;;;;;;9.65;53.66;99358.48;1810316;78;21068;-64
2021/12/04 01:41:14;;;;;;;8.25;6.55;;;;;;;9.64;53.64;99362.97;1813758;77;21366;-64
2021/12/04 01:43:40;;;;;;;7.17;6.37;;;;;;;9.63;53.60;99369.27;1797936;78;21002;-64
2021/12/04 01:46:07;;;;;;;7.10;6.05;;;;;;;9.63;53.59;99374.56;1797188;77;22333;-64
2021/12/04 01:48:34;;;;;;;7.80;6.30;;;;;;;9.62;53.58;99378.23;1793675;78;21040;-63
2021/12/04 01:51:01;;;;;;;7.42;6.03;;;;;;;9.62;53.55;99381.39;1816451;78;21049;-64
2021/12/04 01:53:27;;;;;;;6.97;6.15;;;;;;;9.61;53.55;99381.87;1801986;78;21080;-64
2021/12/04 01:55:56;;;;;;;6.90;6.20;;;;;;;9.60;53.52;99381.55;1788172;78;21022;-64
2021/12/04 01:58:23;;;;;;;8.08;6.67;;;;;;;9.59;53.52;99379.89;1788374;79;21149;-65
2021/12/04 02:00:50;;;;;;;7.60;6.55;;;;;;;9.59;53.50;99385.19;1796464;78;21499;-65
2021/12/04 02:03:18;;;;;;;7.35;6.28;;;;;;;9.58;53.49;99390.18;1757050;80;21056;-64
2021/12/04 02:05:45;;;;;;;7.45;6.40;;;;;;;9.57;53.47;99384.53;1738219;80;21526;-65
2021/12/04 02:08:15;;;;;;;7.12;6.40;;;;;;;9.57;53.46;99386.37;1752855;79;21046;-65
2021/12/04 02:10:43;;;;;;;7.05;6.35;;;;;;;9.57;53.44;99389.02;1748033;79;21069;-65
2021/12/04 02:13:10;;;;;;;5.92;5.33;;;;;;;9.55;53.43;99391.84;1741317;79;21525;-64
2021/12/04 02:15:37;;;;;;;7.83;6.65;;;;;;;9.55;53.42;99391.02;1759769;79;21058;-64
2021/12/04 02:18:05;;;;;;;6.53;5.58;;;;;;;9.55;53.43;99388.37;1752088;79;21012;-64
2021/12/04 02:20:33;;;;;;;7.10;5.97;;;;;;;9.53;53.39;99395.16;1753677;80;21046;-65
2021/12/04 02:23:01;;;;;;;8.70;6.65;;;;;;;9.53;53.37;99388.53;1740960;81;21052;-65
2021/12/04 02:25:28;;;;;;;9.48;6.17;;;;;;;9.52;53.36;99389.55;1748110;80;21034;-64
2021/12/04 02:27:56;;;;;;;7.78;6.55;;;;;;;9.52;53.37;99386.04;1747496;79;21051;-64
2021/12/04 02:30:25;;;;;;;7.95;6.50;;;;;;;9.51;53.36;99394.50;1736050;81;21074;-64
2021/12/04 02:32:54;;;;;;;7.10;6.10;;;;;;;9.51;53.34;99406.44;1729994;82;21540;-64
2021/12/04 02:35:20;;;;;;;6.47;5.83;;;;;;;9.50;53.32;99399.97;1739590;80;21118;-63
2021/12/04 02:37:46;;;;;;;7.47;6.70;;;;;;;9.50;53.31;99402.62;1742670;81;21055;-63
2021/12/04 02:40:17;;;;;;;7.45;6.60;;;;;;;9.50;53.25;99400.79;1760018;79;21060;-63
2021/12/04 02:42:44;;;;;;;6.75;5.75;;;;;;;9.49;53.25;99398.33;1746196;81;21022;-64
2021/12/04 02:45:11;;;;;;;7.53;5.70;;;;;;;9.49;53.25;99402.31;1735247;81;21538;-64
2021/12/04 02:47:38;;;;;;;7.17;6.20;;;;;;;9.48;53.21;99400.64;1754253;79;21222;-64
2021/12/04 02:50:07;;;;;;;6.67;5.83;;;;;;;9.47;53.20;99401.14;1737303;80;21026;-63
2021/12/04 02:52:35;;;;;;;7.37;6.00;;;;;;;9.46;53.19;99395.50;1738186;79;21105;-63
2021/12/04 02:55:03;;;;;;;7.90;6.62;;;;;;;9.47;53.18;99392.38;1752231;79;21045;-64
2021/12/04 02:57:31;;;;;;;6.85;6.05;;;;;;;9.46;53.15;99398.15;1767581;79;21069;-63
2021/12/04 02:59:58;;;;;;;6.72;5.97;;;;;;;9.45;53.13;99399.98;1756798;79;21207;-64
2021/12/04 03:02:25;;;;;;;7.20;6.17;;;;;;;9.45;53.14;99397.84;1765628;79;21509;-63
2021/12/04 03:04:56;;;;;;;6.87;6.03;;;;;;;9.43;53.10;99396.67;1754670;81;21098;-63
2021/12/04 03:07:23;;;;;;;7.15;6.05;;;;;;;9.44;53.09;99405.45;1753501;81;21007;-64
2021/12/04 03:09:50;;;;;;;7.40;6.28;;;;;;;9.43;53.06;99401.98;1741954;81;21002;-64
2021/12/04 03:12:22;;;;;;;7.90;6.37;;;;;;;9.41;53.04;99401.32;1772080;79;21893;-64
2021/12/04 03:14:51;;;;;;;7.37;6.62;;;;;;;9.42;53.06;99402.95;1770720;79;21028;-63
2021/12/04 03:17:20;;;;;;;7.70;6.53;;;;;;;9.41;53.04;99401.32;1734753;81;21602;-64
2021/12/04 03:19:46;;;;;;;8.55;6.40;;;;;;;9.41;53.02;99411.11;1758750;79;21030;-65
2021/12/04 03:22:14;;;;;;;6.80;6.10;;;;;;;9.40;53.02;99408.93;1776479;78;21009;-64
2021/12/04 03:24:43;;;;;;;6.85;6.08;;;;;;;9.40;53.01;99410.77;1781099;79;21138;-65
2021/12/04 03:27:09;;;;;;;7.75;6.12;;;;;;;9.39;52.98;99414.42;1772141;78;21186;-64
2021/12/04 03:29:41;;;;;;;8.63;7.08;;;;;;;9.38;52.98;99410.11;1753842;80;21020;-64
2021/12/04 03:40:09;;;;;;;6.72;5.87;;;;;;;9.37;52.93;99416.42;1657530;84;21592;-64
2021/12/04 03:42:35;;;;;;;8.08;6.53;;;;;;;9.36;52.94;99408.13;1761641;80;21049;-63
2021/12/04 03:45:03;;;;;;;7.08;6.08;;;;;;;9.34;52.93;99413.59;1771132;80;21088;-63
2021/12/04 03:47:31;;;;;;;7.20;6.20;;;;;;;9.34;52.93;99418.06;1764793;79;21062;-63
2021/12/04 03:49:58;;;;;;;7.25;6.50;;;;;;;9.33;52.92;99415.92;1735798;81;22713;-64
2021/12/04 03:52:24;;;;;;;7.85;5.87;;;;;;;9.32;52.89;99412.92;1747929;81;21062;-63
2021/12/04 03:54:51;;;;;;;7.60;6.30;;;;;;;9.32;52.90;99417.41;1756880;80;21015;-63
2021/12/04 03:57:17;;;;;;;7.95;6.67;;;;;;;9.31;52.87;99425.87;1761668;79;21534;-64
2021/12/04 03:59:46;;;;;;;7.78;6.50;;;;;;;9.31;52.84;99436.95;1756463;79;21048;-64
2021/12/04 04:02:14;;;;;;;7.47;6.00;;;;;;;9.31;52.82;99443.09;1770189;80;21111;-63
2021/12/04 04:04:41;;;;;;;9.23;6.83;;;;;;;9.30;52.82;99442.75;1751909;80;21084;-63
2021/12/04 04:07:08;;;;;;;8.20;6.75;;;;;;;9.30;52.80;99440.11;1780237;79;21008;-64
2021/12/04 04:09:35;;;;;;;7.00;6.22;;;;;;;9.30;52.78;99443.27;1768876;80;21053;-64
2021/12/04 04:12:02;;;;;;;7.60;6.75;;;;;;;9.29;52.74;99434.97;1758785;80;21339;-64
2021/12/04 04:14:30;;;;;;;7.85;6.47;;;;;;;9.28;52.74;99431.49;1750311;80;21100;-65
2021/12/04 04:16:56;;;;;;;7.70;6.08;;;;;;;9.28;52.71;99442.60;1750625;80;21065;-64
2021/12/04 04:19:23;;;;;;;6.67;5.97;;;;;;;9.27;52.70;99446.23;1766163;80;20981;-64
2021/12/04 04:21:56;;;;;;;7.25;6.55;;;;;;;9.27;52.68;99451.03;1752990;80;21045;-64
2021/12/04 04:24:19;;;;;;;7.95;6.90;;;;;;;9.27;52.66;99449.70;1751522;80;21465;-63
2021/12/04 04:26:47;;;;;;;7.50;6.17;;;;;;;9.25;52.64;99445.92;1761587;79;20986;-64
2021/12/04 04:29:15;;;;;;;8.50;6.97;;;;;;;9.25;52.61;99449.05;1754634;80;22107;-64
2021/12/04 04:31:48;;;;;;;7.45;6.40;;;;;;;9.24;52.58;99442.92;1772232;79;21016;-65
2021/12/04 04:34:22;;;;;;;;;;;;;;;9.24;52.58;99443.42;1754367;80;21048;-63
2021/12/04 04:37:38;;;;;;;6.72;6.00;;;;;;;9.23;52.55;99445.73;1780235;79;20162;-63
2021/12/04 04:39:56;;;;;;;9.60;7.80;;;;;;;9.18;52.60;99448.89;1748948;80;21135;-64
2021/12/04 04:58:49;;;;;;;7.95;7.10;;;;;;;9.12;52.56;99448.23;1751996;80;21533;-65
2021/12/04 05:11:56;;;;;;;8.45;7.25;;;;;;;9.08;52.51;99448.24;1739871;79;21065;-64
2021/12/04 05:14:16;;;;;;;7.72;6.45;;;;;;;9.07;52.52;99450.55;1732038;81;21039;-63
2021/12/04 05:16:49;;;;;;;8.78;6.72;;;;;;;9.07;52.52;99457.17;1738795;81;21038;-63
2021/12/04 05:19:37;;;;;;;8.25;6.85;;;;;;;9.06;52.50;99455.53;1739113;81;21093;-63
2021/12/04 05:21:55;;;;;;;8.38;7.37;;;;;;;9.06;52.51;99460.83;1753136;80;21011;-64
2021/12/04 05:24:22;;;;;;;8.78;6.97;;;;;;;9.05;52.50;99459.16;1743630;79;21073;-64
2021/12/04 05:26:48;;;;;;;10.20;8.15;;;;;;;9.03;52.50;99457.99;1734533;81;21019;-64
2021/12/04 05:29:15;;;;;;;8.83;6.80;;;;;;;9.05;52.47;99471.91;1744069;79;21168;-65
2021/12/04 05:31:41;;;;;;;9.33;7.50;;;;;;;9.05;52.45;99473.73;1758970;80;21195;-65
2021/12/04 05:34:08;;;;;;;9.40;7.70;;;;;;;9.05;52.43;99479.03;1756739;79;21079;-64
2021/12/04 05:36:34;;;;;;;8.08;6.97;;;;;;;9.05;52.41;99479.03;1741723;80;21158;-63
2021/12/04 05:39:01;;;;;;;8.93;6.78;;;;;;;9.04;52.41;99479.54;1760593;79;21054;-64
2021/12/04 05:41:27;;;;;;;8.13;7.05;;;;;;;9.03;52.38;99481.84;1751237;80;21669;-64
2021/12/04 05:43:54;;;;;;;8.83;7.67;;;;;;;9.04;52.39;99486.16;1752454;81;21251;-64
2021/12/04 05:46:25;;;;;;;8.13;6.67;;;;;;;9.04;52.34;99485.34;1751396;81;21038;-65
2021/12/04 05:48:56;;;;;;;9.65;6.95;;;;;;;9.04;52.33;99487.99;1747665;80;21486;-63
2021/12/04 05:54:29;;;;;;;8.20;6.97;;;;;;;9.04;52.27;99491.97;1752177;80;21061;-64
2021/12/04 05:56:35;;;;;;;8.38;6.70;;;;;;;9.04;52.27;99494.62;1753640;79;21136;-63
2021/12/04 05:59:02;;;;;;;8.93;7.12;;;;;;;9.03;52.27;99493.77;1753209;80;21016;-63
2021/12/04 06:01:29;;;;;;;8.13;6.80;;;;;;;9.03;52.25;99501.72;1766841;80;21836;-65
2021/12/04 06:03:55;;;;;;;9.65;7.35;;;;;;;9.04;52.22;99495.94;1767987;80;21028;-63
2021/12/04 06:06:22;;;;;;;8.70;7.53;;;;;;;9.03;52.20;99504.36;1768414;80;21077;-63
2021/12/04 06:08:48;;;;;;;8.00;7.10;;;;;;;9.03;52.19;99503.55;1770582;80;21150;-64
2021/12/04 06:11:15;;;;;;;9.25;7.20;;;;;;;9.03;52.18;99507.02;1772947;79;21088;-63
2021/12/04 06:13:42;;;;;;;9.70;8.00;;;;;;;9.03;52.17;99509.66;1776139;80;21524;-65
2021/12/04 06:16:08;;;;;;;7.65;6.60;;;;;;;9.03;52.16;99517.61;1744568;81;21049;-65
2021/12/04 06:18:35;;;;;;;9.18;7.83;;;;;;;9.04;52.14;99514.49;1735985;82;21562;-65
2021/12/04 06:23:46;;;;;;;10.05;7.55;;;;;;;9.04;52.13;99506.03;1751472;80;21560;-63
2021/12/04 06:26:14;;;;;;;8.48;7.05;;;;;;;9.05;52.09;99513.48;1751874;80;21064;-63
2021/12/04 06:28:42;;;;;;;8.13;6.67;;;;;;;9.04;52.09;99507.87;1752756;80;21036;-63
2021/12/04 06:31:09;;;;;;;8.98;7.60;;;;;;;9.05;52.07;99510.83;1769277;80;20981;-64
2021/12/04 06:33:37;;;;;;;9.43;6.97;;;;;;;9.05;52.04;99510.83;1761950;80;21138;-63
2021/12/04 06:36:05;;;;;;;8.75;7.03;;;;;;;9.06;52.03;99519.13;1770997;79;21590;-65
2021/12/04 06:38:32;;;;;;;9.05;7.30;;;;;;;9.07;52.02;99519.95;1756927;80;21044;-63
2021/12/04 06:40:59;;;;;;;6.72;6.03;;;;;;;9.07;52.01;99522.09;1761672;79;21067;-64
2021/12/04 06:43:25;;;;;;;10.30;7.40;;;;;;;9.07;52.00;99520.77;1773932;80;21049;-64
2021/12/04 06:46:00;;;;;;;8.20;6.70;;;;;;;9.09;51.98;99525.41;1760786;80;21094;-64
2021/12/04 06:48:33;;;;;;;10.23;7.97;;;;;;;9.09;51.97;99522.76;1759666;80;21072;-63
2021/12/04 06:51:04;;;;;;;8.63;7.22;;;;;;;9.10;51.93;99523.11;1742854;81;21041;-64
2021/12/04 06:55:55;;;;;;;8.50;7.58;;;;;;;9.12;51.90;99515.81;1755386;79;21010;-64
2021/12/04 06:58:23;;;;;;;9.28;7.00;;;;;;;9.14;51.90;99511.69;1752474;81;21227;-63
2021/12/04 07:00:51;;;;;;;8.60;7.55;;;;;;;9.14;51.86;99515.16;1744327;80;21023;-64
2021/12/04 07:03:18;;;;;;;9.23;7.58;;;;;;;9.16;51.84;99522.44;1759701;80;21059;-64
2021/12/04 07:05:44;;;;;;;8.33;7.45;;;;;;;9.18;51.82;99529.73;1758407;81;21066;-64
2021/12/04 07:08:11;;;;;;;8.95;7.60;;;;;;;9.19;51.94;99519.95;1743653;81;21116;-62
2021/12/04 07:10:40;;;;;;;9.90;7.10;;;;;;;9.21;52.04;99523.27;1747062;79;21965;-63
2021/12/04 07:13:07;;;;;;;8.23;6.85;;;;;;;9.21;52.06;99517.48;1751590;81;21491;-64
2021/12/04 07:15:34;;;;;;;11.63;8.10;;;;;;;9.23;52.06;99519.48;1758968;81;21034;-67
2021/12/04 07:18:01;;;;;;;9.60;7.65;;;;;;;9.25;52.02;99469.77;1739157;81;21023;-65
2021/12/04 07:20:28;;;;;;;9.30;8.25;;;;;;;9.28;52.84;99461.98;1735205;80;21038;-68
2021/12/04 07:22:54;;;;;;;10.08;8.35;;;;;;;9.33;55.10;99469.42;1734720;79;21123;-67
2021/12/04 07:25:21;;;;;;;9.28;8.10;;;;;;;9.40;57.16;99467.77;1747324;80;21995;-66
2021/12/04 07:27:50;;;;;;;10.95;8.33;;;;;;;9.45;58.49;99469.42;1752214;81;21035;-65
2021/12/04 07:30:18;;;;;;;10.08;7.33;;;;;;;9.53;59.39;99531.73;1750421;80;21015;-65
2021/12/04 07:32:45;;;;;;;11.18;7.85;;;;;;;9.62;60.17;99473.71;1746419;81;21053;-65
2021/12/04 07:35:12;;;;;;;14.13;8.08;;;;;;;9.72;61.32;99478.83;1735216;81;21121;-65
2021/12/04 07:37:38;;;;;;;11.38;8.45;;;;;;;9.81;61.89;99472.99;1735429;80;21050;-65
2021/12/04 07:40:06;;;;;;;12.95;8.68;;;;;;;9.90;62.23;99478.61;1757352;79;21023;-66
2021/12/04 07:42:32;;;;;;;12.90;9.20;;;;;;;9.98;62.44;99484.39;1750245;79;21050;-66
2021/12/04 07:44:59;;;;;;;12.82;9.80;;;;;;;10.06;62.58;99484.88;1741670;79;21263;-65
2021/12/04 07:47:26;;;;;;;13.25;9.18;;;;;;;10.13;62.60;99492.48;1746160;80;21089;-66
2021/12/04 07:49:53;;;;;;;15.00;10.28;;;;;;;10.20;62.56;99494.28;1806942;78;21003;-65
2021/12/04 07:52:20;;;;;;;12.25;9.88;;;;;;;10.28;62.51;99499.24;1744252;81;21041;-65
2021/12/04 07:54:48;;;;;;;12.60;9.75;;;;;;;10.35;62.44;99504.20;1738366;79;21050;-64
2021/12/04 07:57:15;;;;;;;14.13;10.98;;;;;;;10.40;62.44;99506.67;1746514;80;21037;-66
2021/12/04 07:59:42;;;;;;;13.93;10.08;;;;;;;10.46;62.32;99509.14;1744877;79;21134;-65
2021/12/04 08:02:08;;;;;;;14.90;10.63;;;;;;;10.52;62.21;99512.94;1736041;81;21010;-67
2021/12/04 08:04:35;;;;;;;15.38;10.93;;;;;;;10.58;62.12;99505.09;1738783;81;21022;-66
2021/12/04 08:07:02;;;;;;;14.00;10.40;;;;;;;10.65;61.99;99505.74;1747504;79;21495;-65
2021/12/04 08:09:29;;;;;;;13.83;10.25;;;;;;;10.70;61.82;99508.20;1736761;81;21058;-65
2021/12/04 08:11:56;;;;;;;12.75;10.10;;;;;;;10.76;61.65;99501.37;1745669;79;21185;-66
2021/12/04 08:14:24;;;;;;;17.23;9.88;;;;;;;10.81;61.56;99501.64;1739981;79;21578;-64
2021/12/04 08:16:51;;;;;;;13.72;9.28;;;;;;;10.87;61.37;99500.13;1736431;79;21055;-65
2021/12/04 08:19:17;;;;;;;12.85;9.33;;;;;;;10.93;61.24;99496.75;1756335;79;21053;-64
2021/12/04 08:21:47;;;;;;;12.55;9.53;;;;;;;10.98;61.04;99497.87;1752979;80;21085;-65
2021/12/04 08:24:15;;;;;;;11.22;9.63;;;;;;;11.08;60.86;99493.66;1743070;80;21851;-66
2021/12/04 08:26:43;;;;;;;11.80;9.40;;;;;;;11.16;60.64;99498.94;1748165;81;21033;-66
2021/12/04 08:29:09;;;;;;;14.30;9.95;;;;;;;11.25;60.49;99498.36;1734234;79;21101;-67
2021/12/04 08:31:37;;;;;;;11.28;8.88;;;;;;;11.34;60.46;99492.48;1734057;81;21022;-67
2021/12/04 08:34:03;;;;;;;10.68;9.53;;;;;;;11.42;60.35;99495.06;1752239;80;21042;-67
2021/12/04 08:36:32;;;;;;;13.18;9.23;;;;;;;11.51;60.32;99494.47;1751772;80;21098;-67
2021/12/04 08:39:00;;;;;;;10.93;9.25;;;;;;;11.60;60.16;99490.73;1754397;81;22422;-67
2021/12/04 08:41:27;;;;;;;12.13;8.98;;;;;;;11.70;60.29;99489.15;1754553;81;21011;-67
2021/12/04 08:43:54;;;;;;;11.73;8.70;;;;;;;11.80;60.38;99485.70;1757013;80;21082;-65
2021/12/04 08:46:22;;;;;;;12.95;8.98;;;;;;;11.89;60.64;99480.66;1773178;80;21103;-66
2021/12/04 08:48:50;;;;;;;12.37;8.70;;;;;;;11.98;60.72;99476.91;1744100;80;21782;-65
2021/12/04 08:51:21;;;;;;;15.65;9.25;;;;;;;12.08;60.74;99471.81;1757411;81;22098;-66
2021/12/04 08:53:47;;;;;;;12.35;8.60;;;;;;;12.16;60.65;99473.05;1751666;81;21051;-65
2021/12/04 08:56:13;;;;;;;13.08;8.90;;;;;;;12.26;60.61;99477.56;1760924;80;21797;-68
2021/12/04 08:58:41;;;;;;;11.65;8.48;;;;;;;12.36;60.54;99470.62;1741963;79;21088;-67
2021/12/04 09:01:13;;;;;;;12.63;9.10;;;;;;;12.45;60.42;99468.17;1745875;80;21870;-66
2021/12/04 09:03:44;;;;;;;10.90;8.60;;;;;;;12.54;60.25;99467.58;1748329;80;21388;-69
2021/12/04 09:06:11;;;;;;;11.65;8.63;;;;;;;12.65;60.06;99467.58;1753444;79;21542;-67
2021/12/04 09:08:37;;;;;;;12.40;9.38;;;;;;;12.74;59.90;99465.12;1755682;80;21042;-66
2021/12/04 09:11:54;;;;;;;14.07;9.48;;;;;;;12.89;59.60;99451.23;1876739;76;28028;-66
2021/12/04 09:14:23;;;;;;;11.15;8.30;;;;;;;12.97;59.35;99452.95;1829031;77;21003;-65
2021/12/04 09:16:52;;;;;;;10.48;8.70;;;;;;;13.04;59.14;99449.84;1843756;77;21040;-67
2021/12/04 09:19:19;;;;;;;11.25;8.75;;;;;;;13.11;58.92;99448.03;1832798;77;20996;-66
2021/12/04 09:21:46;;;;;;;11.93;9.05;;;;;;;13.19;58.66;99445.74;1836048;77;21044;-66
2021/12/04 09:24:14;;;;;;;12.93;8.93;;;;;;;13.28;58.46;99446.45;1832007;77;20984;-66
2021/12/04 09:26:55;;;;;;;11.03;9.23;;;;;;;13.34;58.27;99441.70;1831121;77;20924;-65
2021/12/04 10:01:21;;;;;;;13.15;10.78;;;;;;;14.43;56.04;99412.18;1835882;77;20997;-64
2021/12/04 10:11:15;;;;;;;13.32;10.30;;;;;;;14.59;55.87;99413.19;1837628;77;21046;-65
2021/12/04 10:12:11;;;;;;;;;;;;;;;14.74;55.97;99404.48;1819770;77;21059;-66
2021/12/04 10:14:58;;;;;;;11.63;9.90;;;;;;;14.82;55.88;99403.98;1816511;77;20145;-65
2021/12/04 10:17:31;;;;;;;14.50;10.18;;;;;;;14.86;55.83;99403.89;1825495;77;21118;-65
2021/12/04 10:33:14;;;;;;;14.05;9.75;;;;;;;15.33;55.43;99399.34;1823665;77;21048;-65
2021/12/04 10:35:42;;;;;;;12.37;9.90;;;;;;;15.39;55.32;99393.69;1825676;77;21089;-66
2021/12/04 10:38:14;;;;;;;12.10;9.98;;;;;;;15.44;55.42;99388.54;1844142;77;20974;-66
2021/12/04 10:40:45;;;;;;;15.28;11.10;;;;;;;15.50;55.55;99388.52;1839650;77;21108;-65
2021/12/04 10:43:13;;;;;;;17.20;11.55;;;;;;;15.60;55.69;99386.74;1818741;77;20993;-67
2021/12/04 10:45:48;;;;;;;19.92;12.95;;;;;;;15.69;55.76;99382.81;1818615;77;21060;-64
2021/12/04 10:48:21;;;;;;;22.20;13.45;;;;;;;15.79;56.05;99389.10;1813942;77;21114;-67
2021/12/04 10:50:56;;;;;;;25.93;15.57;;;;;;;15.90;56.47;99387.64;1818358;77;21048;-65
2021/12/04 10:53:25;;;;;;;25.62;14.55;;;;;;;16.02;56.74;99385.93;1822043;76;21526;-67
2021/12/04 11:01:42;;;;;;;20.30;12.20;;;;;;;16.38;56.61;99385.88;1820436;77;21141;-65
2021/12/04 11:44:29;;;;;;;13.45;9.20;;;;;;;16.79;52.41;99391.29;1824780;78;21065;-60
2021/12/04 11:46:56;;;;;;;10.80;8.95;;;;;;;16.74;52.17;99384.93;1817444;78;21081;-61
2021/12/04 11:49:27;;;;;;;8.80;7.90;;;;;;;16.69;51.91;99381.57;1815215;78;21037;-61
2021/12/04 11:52:07;;;;;;;11.85;8.50;;;;;;;16.62;51.72;99378.91;1824270;77;21063;-62
2021/12/04 11:54:44;;;;;;;11.00;9.23;;;;;;;16.56;51.51;99383.81;1831347;78;21132;-61
2021/12/04 11:57:12;;;;;;;12.50;9.43;;;;;;;16.50;51.31;99384.67;1753285;80;21084;-61
2021/12/04 11:59:41;;;;;;;13.40;9.58;;;;;;;16.42;51.18;99382.25;1831268;78;21001;-62
2021/12/04 12:02:10;;;;;;;18.15;8.93;;;;;;;16.37;51.03;99386.09;1812483;78;21129;-61
2021/12/04 12:04:41;;;;;;;10.13;8.43;;;;;;;16.30;50.95;99378.06;1797201;78;21053;-61
2021/12/04 12:07:20;;;;;;;11.10;9.00;;;;;;;16.23;50.80;99375.44;1819959;78;21147;-72
2021/12/04 12:09:51;;;;;;;12.23;8.18;;;;;;;16.16;50.74;99331.75;1815708;78;20962;-60
2021/12/04 12:12:18;;;;;;;12.40;8.75;;;;;;;16.12;53.60;99368.87;1801057;77;21590;-60
2021/12/04 12:14:51;;;;;;;9.60;7.42;;;;;;;16.12;53.00;99366.19;1783612;79;21049;-59
2021/12/04 12:17:39;;;;;;;12.85;9.83;;;;;;;16.09;52.67;99367.16;1788691;79;21064;-60
2021/12/04 12:20:14;;;;;;;12.60;8.13;;;;;;;16.05;52.46;99360.56;1797826;79;22031;-63
2021/12/04 12:22:43;;;;;;;12.75;9.38;;;;;;;15.98;52.40;99361.13;1784655;77;21541;-63
2021/12/04 12:26:12;;;;;;;12.85;8.45;;;;;;;15.88;52.43;99361.06;1791608;77;21521;-62
2021/12/04 12:33:42;;;;;;;11.48;8.88;;;;;;;15.67;52.45;99362.13;1786480;79;21255;-61
2021/12/04 12:36:17;;;;;;;12.95;8.90;;;;;;;15.59;52.37;99364.19;1783408;79;21026;-62
2021/12/04 12:38:51;;;;;;;11.55;8.38;;;;;;;15.51;52.32;99362.56;1789153;79;21036;-63
2021/12/04 12:41:42;;;;;;;10.82;8.80;;;;;;;15.44;52.23;99361.77;1795205;79;21357;-62
2021/12/04 12:44:28;;;;;;;12.40;8.08;;;;;;;15.36;52.14;99356.13;1794277;79;21050;-62
2021/12/04 12:46:59;;;;;;;12.85;8.93;;;;;;;15.28;52.08;99357.17;1803025;77;21139;-63
2021/12/04 12:49:37;;;;;;;10.35;7.83;;;;;;;15.22;51.95;99357.16;1786711;79;21013;-63
2021/12/04 12:52:25;;;;;;;10.58;7.97;;;;;;;15.14;51.87;99357.70;1795345;79;21100;-62
2021/12/04 12:54:59;;;;;;;10.93;8.85;;;;;;;15.07;51.80;99352.86;1802929;79;21030;-61
2021/12/04 12:57:38;;;;;;;10.18;8.18;;;;;;;15.00;51.75;99355.23;1793122;79;21025;-63
2021/12/04 13:11:44;;;;;;;11.55;8.68;;;;;;;14.61;51.39;99355.00;1789789;78;21064;-63
2021/12/04 13:14:33;;;;;;;9.93;8.80;;;;;;;14.52;51.38;99346.83;1819252;78;21124;-63
2021/12/04 13:17:08;;;;;;;10.15;8.63;;;;;;;14.45;51.40;99340.67;1826694;78;21011;-60
2021/12/04 13:19:38;;;;;;;9.83;8.43;;;;;;;14.37;51.34;99343.02;1805120;78;21034;-61
2021/12/04 13:22:11;;;;;;;10.20;8.75;;;;;;;14.30;51.35;99347.00;1811054;78;21538;-62
2021/12/04 13:24:41;;;;;;;12.15;9.00;;;;;;;14.24;51.39;99341.66;1813158;78;21062;-62
2021/12/04 13:29:44;;;;;;;10.78;8.95;;;;;;;14.11;51.32;99338.42;1813367;78;20990;-61
2021/12/04 13:32:14;;;;;;;10.13;8.98;;;;;;;14.05;51.31;99341.90;1814802;78;21549;-61
2021/12/04 13:34:42;;;;;;;11.15;8.85;;;;;;;13.98;51.31;99341.05;1826777;78;20979;-62
2021/12/04 13:37:09;;;;;;;11.75;9.28;;;;;;;13.92;51.27;99335.98;1819074;78;21100;-62
2021/12/04 13:39:37;;;;;;;9.68;8.68;;;;;;;13.87;51.24;99343.77;1771154;80;21129;-61
2021/12/04 13:42:04;;;;;;;12.63;10.15;;;;;;;13.80;51.21;99340.27;1821721;77;20979;-62
2021/12/04 13:44:31;;;;;;;11.90;9.68;;;;;;;13.73;51.21;99339.73;1819548;78;21147;-62
2021/12/04 13:47:05;;;;;;;11.88;9.78;;;;;;;13.69;51.21;99338.97;1818021;78;21076;-63
2021/12/04 13:49:40;;;;;;;10.88;8.55;;;;;;;13.62;51.18;99332.28;1827063;78;21014;-64
2021/12/04 13:52:12;;;;;;;11.97;9.78;;;;;;;13.56;51.17;99335.22;1819878;77;21111;-64
2021/12/04 13:54:44;;;;;;;10.98;9.20;;;;;;;13.50;51.18;99333.84;1817192;78;21604;-63
2021/12/04 13:57:12;;;;;;;11.53;8.73;;;;;;;13.35;51.18;99321.45;1825698;78;21553;-62
2021/12/04 13:59:39;;;;;;;12.13;9.85;;;;;;;13.38;51.19;99337.57;1811954;78;21056;-63
2021/12/04 14:02:06;;;;;;;11.45;9.45;;;;;;;13.33;51.23;99338.69;1825034;78;21018;-62
2021/12/04 14:04:33;;;;;;;11.50;9.68;;;;;;;13.27;51.22;99333.59;1824480;78;21142;-62
2021/12/04 14:07:02;;;;;;;12.50;9.45;;;;;;;13.23;51.24;99334.16;1823795;78;21057;-63
2021/12/04 14:09:35;;;;;;;9.78;8.05;;;;;;;13.17;51.22;99336.61;1813687;78;21467;-62
2021/12/04 14:12:03;;;;;;;12.03;9.33;;;;;;;13.13;51.23;99338.50;1826601;77;26684;-61
2021/12/04 14:14:31;;;;;;;11.30;8.75;;;;;;;13.08;51.22;99335.09;1831563;77;21021;-63
2021/12/04 14:17:14;;;;;;;10.75;9.65;;;;;;;13.04;51.22;99332.99;1836828;77;21529;-62
2021/12/04 14:19:41;;;;;;;12.73;10.00;;;;;;;13.00;51.24;99337.92;1837906;77;21474;-62
2021/12/04 14:22:18;;;;;;;11.53;9.28;;;;;;;12.95;51.23;99344.33;1830701;77;21021;-63
2021/12/04 14:24:58;;;;;;;11.50;9.38;;;;;;;12.89;51.26;99345.92;1831884;77;20986;-63
2021/12/04 14:27:25;;;;;;;14.03;9.58;;;;;;;12.85;51.23;99345.18;1830674;77;21057;-63
2021/12/04 14:29:55;;;;;;;10.68;8.80;;;;;;;12.81;51.26;99347.92;1840303;77;21048;-63
2021/12/04 14:32:26;;;;;;;12.98;9.43;;;;;;;12.76;51.26;99344.48;1830758;77;21057;-62
2021/12/04 14:35:09;;;;;;;13.20;9.90;;;;;;;12.71;51.26;99343.73;1828600;77;21444;-63
2021/12/04 14:37:42;;;;;;;10.85;9.28;;;;;;;12.68;51.23;99346.77;1824783;77;21552;-63